Time;durP1;ratioP1;P1;durP2;ratioP2;P2;SDS_P1;SDS_P2;PMS_P1;PMS_P2;Temp;Humidity;BMP_temperature;BMP_pressure;BME280_temperature;BME280_humidity;BME280_pressure;Samples;Min_cycle;Max_cycle;Signal;HPM_P1;HPM_P2
2023/02/15 00:01:50;;;;;;;42.33;22.38;;;;;2.30;99857.00;;;;5075670;28;20048;-61
2023/02/15 00:04:18;;;;;;;42.15;22.48;;;;;2.40;99865.00;;;;5075225;28;20472;-60
2023/02/15 00:06:45;;;;;;;35.40;20.33;;;;;2.60;99853.00;;;;5075541;28;20044;-61
2023/02/15 00:09:12;;;;;;;38.60;20.75;;;;;2.60;99847.00;;;;5075554;28;20501;-60
2023/02/15 00:11:39;;;;;;;40.35;21.60;;;;;2.60;99839.00;;;;5075460;28;20573;-61
2023/02/15 00:14:23;;;;;;;42.63;21.38;;;;;2.40;99842.00;;;;5075307;28;20044;-61
2023/02/15 00:16:51;;;;;;;35.15;19.67;;;;;2.20;99843.00;;;;5075791;28;20497;-60
2023/02/15 00:19:20;;;;;;;44.55;20.95;;;;;2.20;99834.00;;;;5074114;28;20484;-60
2023/02/15 00:21:48;;;;;;;38.83;19.95;;;;;2.20;99835.00;;;;5073772;28;20044;-61
2023/02/15 00:24:17;;;;;;;37.42;20.63;;;;;2.20;99831.00;;;;5074578;28;20049;-60
2023/02/15 00:26:45;;;;;;;36.53;20.15;;;;;2.20;99836.00;;;;5074036;28;20489;-60
2023/02/15 00:29:13;;;;;;;38.22;20.42;;;;;2.20;99826.00;;;;5075336;28;20397;-61
2023/02/15 00:31:40;;;;;;;45.55;21.63;;;;;2.10;99828.00;;;;5075072;28;20119;-61
2023/02/15 00:34:15;;;;;;;44.90;21.52;;;;;2.10;99834.00;;;;5073159;28;20051;-61
2023/02/15 00:36:42;;;;;;;45.58;22.67;;;;;2.00;99835.00;;;;5074677;28;20044;-61
2023/02/15 00:39:09;;;;;;;40.60;20.95;;;;;2.00;99826.00;;;;5074827;28;20041;-61
2023/02/15 00:41:36;;;;;;;43.45;21.17;;;;;2.00;99828.00;;;;5074693;28;20055;-61
2023/02/15 00:44:03;;;;;;;40.13;21.38;;;;;2.20;99827.00;;;;5074658;28;20058;-62
2023/02/15 00:46:31;;;;;;;35.90;19.98;;;;;2.30;99826.00;;;;5073504;28;20049;-62
2023/02/15 00:48:58;;;;;;;42.22;20.48;;;;;2.30;99824.00;;;;5074075;28;20109;-63
2023/02/15 00:51:25;;;;;;;51.78;23.33;;;;;2.20;99827.00;;;;5074955;28;20047;-63
2023/02/15 00:53:52;;;;;;;40.97;23.00;;;;;2.10;99821.00;;;;5074133;28;20046;-61
2023/02/15 00:56:18;;;;;;;40.13;21.10;;;;;2.10;99820.00;;;;5072576;28;20051;-61
2023/02/15 00:58:45;;;;;;;47.13;21.63;;;;;2.10;99825.00;;;;5074418;28;20040;-61
2023/02/15 01:01:14;;;;;;;40.05;20.73;;;;;2.20;99826.00;;;;5074339;28;20131;-62
2023/02/15 01:03:42;;;;;;;41.63;21.08;;;;;2.20;99827.00;;;;5073251;28;20102;-62
2023/02/15 01:06:10;;;;;;;44.45;22.00;;;;;2.00;99823.00;;;;5074168;28;20086;-62
2023/02/15 01:08:37;;;;;;;37.75;20.10;;;;;2.00;99818.00;;;;5078511;28;20040;-62
2023/02/15 01:11:10;;;;;;;38.08;20.70;;;;;1.90;99825.00;;;;5079234;28;20400;-62
2023/02/15 01:13:37;;;;;;;39.13;20.77;;;;;1.80;99813.00;;;;5075952;28;20056;-62
2023/02/15 01:16:04;;;;;;;39.60;20.48;;;;;1.80;99806.00;;;;5074340;28;20508;-61
2023/02/15 01:18:32;;;;;;;40.97;20.75;;;;;1.70;99813.00;;;;5074870;28;20041;-60
2023/02/15 01:20:59;;;;;;;42.78;21.23;;;;;1.70;99806.00;;;;5074012;28;20049;-62
2023/02/15 01:23:26;;;;;;;38.28;21.33;;;;;1.60;99807.00;;;;5073949;28;20462;-61
2023/02/15 01:25:52;;;;;;;42.53;18.67;;;;;1.60;99802.00;;;;5071882;28;20498;-62
2023/02/15 01:28:19;;;;;;;37.70;20.70;;;;;1.60;99800.00;;;;5074081;28;20494;-61
2023/02/15 01:30:45;;;;;;;38.58;21.33;;;;;1.70;99802.00;;;;5072610;28;20044;-62
2023/02/15 01:33:17;;;;;;;38.00;19.95;;;;;1.70;99809.00;;;;5073955;28;20068;-61
2023/02/15 01:35:47;;;;;;;44.92;20.58;;;;;1.70;99809.00;;;;5076654;28;20123;-62
2023/02/15 01:38:15;;;;;;;41.78;20.38;;;;;1.70;99800.00;;;;5080450;28;20048;-61
2023/02/15 01:40:42;;;;;;;40.65;20.80;;;;;1.70;99801.00;;;;5078957;28;20048;-62
2023/02/15 01:43:12;;;;;;;44.63;20.17;;;;;1.60;99801.00;;;;5080515;28;20091;-62
2023/02/15 01:45:39;;;;;;;38.35;20.35;;;;;1.60;99801.00;;;;5081145;28;20112;-62
2023/02/15 01:48:20;;;;;;;38.00;20.45;;;;;1.70;99811.00;;;;5081387;28;20378;-62
2023/02/15 01:50:56;;;;;;;36.70;20.02;;;;;1.60;99798.00;;;;5080987;28;20461;-62
2023/02/15 01:53:38;;;;;;;41.95;21.10;;;;;1.60;99799.00;;;;5080076;28;20052;-62
2023/02/15 01:56:11;;;;;;;45.38;19.67;;;;;1.70;99788.00;;;;5078213;28;20090;-62
2023/02/15 01:58:38;;;;;;;37.70;20.33;;;;;1.70;99788.00;;;;5079246;28;20044;-62
2023/02/15 02:01:07;;;;;;;38.58;19.60;;;;;1.70;99782.00;;;;5077933;28;20051;-61
2023/02/15 02:03:53;;;;;;;41.00;21.25;;;;;1.70;99780.00;;;;5075785;28;20033;-62
2023/02/15 02:06:19;;;;;;;36.95;19.80;;;;;1.70;99784.00;;;;5072066;28;20044;-62
2023/02/15 02:08:47;;;;;;;38.03;20.52;;;;;1.70;99783.00;;;;5073759;28;20439;-62
2023/02/15 02:11:14;;;;;;;43.42;20.25;;;;;1.70;99780.00;;;;5072324;28;20489;-62
2023/02/15 02:13:45;;;;;;;39.88;21.55;;;;;1.60;99779.00;;;;5073687;28;20040;-62
2023/02/15 02:16:27;;;;;;;37.05;20.77;;;;;1.70;99779.00;;;;5072903;28;20044;-61
2023/02/15 02:19:26;;;;;;;35.00;19.52;;;;;1.80;99784.00;;;;5073532;28;20040;-62
2023/02/15 02:22:34;;;;;;;37.40;20.80;;;;;1.90;99787.00;;;;5072341;28;20048;-62
2023/02/15 02:25:28;;;;;;;38.30;19.20;;;;;1.80;99781.00;;;;5057040;28;20052;-62
2023/02/15 02:28:37;;;;;;;36.55;20.13;;;;;1.70;99782.00;;;;5073950;28;20489;-62
2023/02/15 02:31:30;;;;;;;36.97;19.33;;;;;1.70;99783.00;;;;5044318;28;20055;-62
2023/02/15 02:34:08;;;;;;;37.10;19.95;;;;;1.80;99781.00;;;;5071862;28;20044;-61
2023/02/15 02:36:54;;;;;;;36.60;19.17;;;;;1.70;99769.00;;;;5072872;28;20045;-62
2023/02/15 02:39:48;;;;;;;32.13;18.77;;;;;1.70;99774.00;;;;5073020;28;20047;-62
2023/02/15 02:42:28;;;;;;;36.75;19.05;;;;;1.60;99766.00;;;;5073572;28;20334;-62
2023/02/15 02:45:09;;;;;;;37.45;19.25;;;;;1.60;99766.00;;;;5073516;28;20048;-62
2023/02/15 02:47:43;;;;;;;37.08;19.25;;;;;1.60;99760.00;;;;5072922;28;20040;-62
2023/02/15 02:50:13;;;;;;;;;;;;;1.60;99750.00;;;;5073205;28;20055;-62
2023/02/15 02:52:43;;;;;;;42.15;19.92;;;;;1.50;99755.00;;;;5072553;28;19920;-62
2023/02/15 02:55:27;;;;;;;39.75;19.58;;;;;1.40;99745.00;;;;5072127;28;20504;-62
2023/02/15 02:58:01;;;;;;;40.55;19.92;;;;;1.40;99754.00;;;;5070942;28;20060;-62
2023/02/15 03:00:35;;;;;;;46.55;21.60;;;;;1.40;99753.00;;;;5070989;28;20044;-62
2023/02/15 03:03:17;;;;;;;54.75;22.52;;;;;1.50;99762.00;;;;5070884;28;20068;-62
2023/02/15 03:05:47;;;;;;;42.88;20.02;;;;;1.50;99755.00;;;;5071624;28;20052;-61
2023/02/15 03:08:21;;;;;;;53.05;21.08;;;;;1.50;99745.00;;;;5072110;28;20040;-61
2023/02/15 03:10:53;;;;;;;45.30;20.95;;;;;1.40;99741.00;;;;5070933;28;20045;-61
2023/02/15 03:13:22;;;;;;;38.28;21.38;;;;;1.50;99748.00;;;;5070773;28;20131;-61
2023/02/15 03:18:42;;;;;;;47.15;22.17;;;;;1.40;99739.00;;;;5070893;28;20045;-61
2023/02/15 03:21:21;;;;;;;41.17;21.13;;;;;1.40;99737.00;;;;5071998;28;20056;-61
2023/02/15 03:23:57;;;;;;;41.08;20.77;;;;;1.40;99734.00;;;;5071998;28;20048;-61
2023/02/15 03:26:25;;;;;;;38.90;21.08;;;;;1.50;99719.00;;;;5071358;28;20056;-62
2023/02/15 03:28:56;;;;;;;41.95;20.75;;;;;1.40;99720.00;;;;5070763;28;20063;-62
2023/02/15 03:31:28;;;;;;;41.20;20.65;;;;;1.40;99714.00;;;;5070641;28;20048;-62
2023/02/15 03:33:59;;;;;;;42.47;22.08;;;;;1.40;99720.00;;;;5071824;28;20128;-62
2023/02/15 03:36:41;;;;;;;42.95;21.17;;;;;1.60;99721.00;;;;5070395;28;20051;-62
2023/02/15 03:39:14;;;;;;;40.30;19.98;;;;;1.70;99714.00;;;;5070582;28;20040;-62
2023/02/15 03:41:56;;;;;;;38.92;20.60;;;;;1.70;99706.00;;;;5071808;28;20053;-62
2023/02/15 03:44:31;;;;;;;35.88;19.85;;;;;1.70;99717.00;;;;5071188;28;20051;-62
2023/02/15 03:47:04;;;;;;;37.53;20.02;;;;;1.80;99721.00;;;;5072147;28;20048;-62
2023/02/15 03:49:42;;;;;;;41.72;19.77;;;;;1.80;99719.00;;;;5071904;28;20040;-62
2023/02/15 03:52:11;;;;;;;36.85;19.00;;;;;1.80;99720.00;;;;5072014;28;20050;-62
2023/02/15 03:54:42;;;;;;;33.90;19.50;;;;;1.80;99722.00;;;;5071556;28;20047;-62
2023/02/15 04:03:08;;;;;;;33.75;17.98;;;;;2.00;99718.00;;;;5072134;28;20040;-62
2023/02/15 04:05:35;;;;;;;33.15;18.48;;;;;2.10;99724.00;;;;5070393;28;20083;-62
2023/02/15 04:08:05;;;;;;;34.05;19.33;;;;;2.00;99715.00;;;;5072418;28;20048;-62
2023/02/15 04:13:16;;;;;;;34.45;18.40;;;;;2.00;99722.00;;;;5073387;28;20045;-62
2023/02/15 04:26:52;;;;;;;40.60;19.90;;;;;1.80;99730.00;;;;5074048;28;20048;-61
2023/02/15 04:29:23;;;;;;;34.13;18.80;;;;;1.70;99736.00;;;;5077008;28;20060;-61
2023/02/15 04:31:51;;;;;;;36.38;19.90;;;;;1.70;99729.00;;;;5077752;28;20048;-61
2023/02/15 04:34:18;;;;;;;38.15;18.30;;;;;1.70;99734.00;;;;5077366;28;20048;-61
2023/02/15 04:36:44;;;;;;;35.17;19.42;;;;;1.50;99727.00;;;;5076795;28;20048;-61
2023/02/15 04:39:15;;;;;;;35.13;20.10;;;;;1.50;99729.00;;;;5076432;28;20052;-61
2023/02/15 04:41:42;;;;;;;35.00;19.40;;;;;1.50;99727.00;;;;5076341;28;20051;-61
2023/02/15 04:44:09;;;;;;;35.47;18.98;;;;;1.50;99718.00;;;;5075433;28;20047;-62
2023/02/15 04:46:35;;;;;;;33.60;19.08;;;;;1.50;99723.00;;;;5076270;28;20047;-61
2023/02/15 04:49:02;;;;;;;33.83;18.67;;;;;1.60;99715.00;;;;5076556;28;20048;-62
2023/02/15 04:51:29;;;;;;;36.97;19.10;;;;;1.70;99713.00;;;;5076508;28;20123;-62
2023/02/15 04:53:56;;;;;;;34.35;18.30;;;;;1.70;99712.00;;;;5075397;28;20040;-61
2023/02/15 04:56:23;;;;;;;36.10;19.25;;;;;1.60;99714.00;;;;5074616;28;20056;-61
2023/02/15 04:58:49;;;;;;;37.58;18.60;;;;;1.50;99710.00;;;;5075889;28;20043;-61
2023/02/15 05:01:17;;;;;;;37.95;19.45;;;;;1.40;99715.00;;;;5075894;28;20041;-61
2023/02/15 05:03:43;;;;;;;34.92;19.35;;;;;1.50;99713.00;;;;5075976;28;20052;-61
2023/02/15 05:06:10;;;;;;;36.53;19.67;;;;;1.60;99711.00;;;;5073370;28;20101;-61
2023/02/15 05:08:36;;;;;;;34.58;19.65;;;;;1.70;99711.00;;;;5074587;28;20124;-61
2023/02/15 05:11:03;;;;;;;32.38;18.52;;;;;1.80;99717.00;;;;5073744;28;20044;-61
2023/02/15 05:13:29;;;;;;;33.58;19.42;;;;;1.90;99719.00;;;;5075697;28;20079;-62
2023/02/15 05:15:56;;;;;;;32.03;18.40;;;;;2.00;99704.00;;;;5077137;28;20044;-61
2023/02/15 05:18:23;;;;;;;31.85;17.92;;;;;1.90;99705.00;;;;5077735;28;20143;-61
2023/02/15 05:20:49;;;;;;;29.38;16.70;;;;;1.90;99708.00;;;;5076288;28;20127;-61
2023/02/15 05:23:16;;;;;;;27.73;17.15;;;;;1.90;99722.00;;;;5076352;28;20044;-62
2023/02/15 05:28:37;;;;;;;30.38;17.45;;;;;2.00;99719.00;;;;5075158;28;20045;-62
2023/02/15 05:31:14;;;;;;;30.67;18.52;;;;;1.90;99715.00;;;;5074319;28;20044;-61
2023/02/15 05:33:42;;;;;;;28.63;16.20;;;;;2.00;99701.00;;;;5074050;28;20045;-61
2023/02/15 05:36:09;;;;;;;33.80;18.63;;;;;2.10;99709.00;;;;5073160;28;20062;-61
2023/02/15 05:38:37;;;;;;;33.63;20.02;;;;;2.00;99711.00;;;;5073450;28;20466;-62
2023/02/15 05:41:09;;;;;;;30.05;17.63;;;;;2.10;99712.00;;;;5073240;28;20123;-62
2023/02/15 05:43:37;;;;;;;29.13;17.13;;;;;2.20;99722.00;;;;5073684;28;20041;-61
2023/02/15 05:46:04;;;;;;;29.08;17.33;;;;;2.30;99711.00;;;;5073703;28;20045;-61
2023/02/15 05:48:32;;;;;;;31.35;17.73;;;;;2.20;99716.00;;;;5073814;28;20059;-62
2023/02/15 05:51:08;;;;;;;27.70;16.80;;;;;2.10;99713.00;;;;5073520;28;20056;-61
2023/02/15 05:53:36;;;;;;;28.00;17.02;;;;;2.10;99717.00;;;;5073342;28;20174;-61
2023/02/15 05:56:04;;;;;;;26.98;16.50;;;;;2.30;99730.00;;;;5072807;28;20159;-62
2023/02/15 05:58:35;;;;;;;25.67;15.23;;;;;2.40;99729.00;;;;5073191;28;20059;-62
2023/02/15 06:01:17;;;;;;;26.80;16.17;;;;;2.30;99739.00;;;;5073252;28;20041;-61
2023/02/15 06:03:45;;;;;;;27.85;17.38;;;;;2.10;99736.00;;;;5073279;28;20170;-62
2023/02/15 06:06:11;;;;;;;27.98;17.20;;;;;2.00;99729.00;;;;5072876;28;20131;-62
2023/02/15 06:08:41;;;;;;;26.75;16.50;;;;;2.10;99735.00;;;;5073478;28;20036;-62
2023/02/15 06:11:07;;;;;;;24.75;16.08;;;;;2.00;99728.00;;;;5073620;28;20048;-62
2023/02/15 06:13:34;;;;;;;27.55;16.52;;;;;2.20;99731.00;;;;5072811;28;20048;-61
2023/02/15 06:16:03;;;;;;;31.13;19.00;;;;;2.30;99747.00;;;;5072965;28;20064;-61
2023/02/15 06:18:31;;;;;;;28.02;15.98;;;;;2.40;99742.00;;;;5072889;28;20127;-62
2023/02/15 06:20:57;;;;;;;25.98;15.88;;;;;2.30;99741.00;;;;5072762;28;20036;-61
2023/02/15 06:23:24;;;;;;;27.85;17.27;;;;;2.30;99746.00;;;;5071512;28;20093;-61
2023/02/15 06:25:50;;;;;;;28.80;17.23;;;;;2.30;99745.00;;;;5072103;28;20040;-62
2023/02/15 06:28:17;;;;;;;29.40;16.85;;;;;2.30;99733.00;;;;5072566;28;20036;-62
2023/02/15 06:30:43;;;;;;;27.05;15.57;;;;;2.30;99736.00;;;;5072607;28;20086;-62
2023/02/15 06:33:10;;;;;;;26.75;16.17;;;;;2.40;99742.00;;;;5072754;28;20071;-62
2023/02/15 06:35:36;;;;;;;33.33;16.15;;;;;2.40;99744.00;;;;5071808;28;20090;-61
2023/02/15 06:38:03;;;;;;;26.50;15.43;;;;;2.50;99735.00;;;;5072711;28;20044;-62
2023/02/15 06:40:30;;;;;;;28.85;15.82;;;;;2.50;99748.00;;;;5072248;28;20044;-62
2023/02/15 06:42:56;;;;;;;27.05;16.17;;;;;2.40;99748.00;;;;5072377;28;20045;-62
2023/02/15 06:45:23;;;;;;;27.42;15.75;;;;;2.40;99749.00;;;;5072028;28;20505;-62
2023/02/15 06:47:49;;;;;;;23.73;14.45;;;;;2.40;99749.00;;;;5072750;28;20054;-62
2023/02/15 06:50:16;;;;;;;23.38;15.07;;;;;2.40;99756.00;;;;5070619;28;20048;-62
2023/02/15 06:52:42;;;;;;;23.55;14.73;;;;;2.30;99749.00;;;;5072213;28;20058;-62
2023/02/15 06:55:09;;;;;;;28.98;16.73;;;;;2.20;99764.00;;;;5071514;28;20048;-62
2023/02/15 06:57:35;;;;;;;27.05;15.00;;;;;2.20;99754.00;;;;5072554;28;20048;-62
2023/02/15 07:00:04;;;;;;;24.85;14.85;;;;;2.20;99754.00;;;;5072118;28;20086;-62
2023/02/15 07:02:31;;;;;;;26.67;15.05;;;;;2.30;99757.00;;;;5070816;28;20102;-61
2023/02/15 07:04:58;;;;;;;28.33;16.10;;;;;2.30;99762.00;;;;5070093;28;20059;-61
2023/02/15 07:07:24;;;;;;;27.42;16.52;;;;;2.20;99765.00;;;;5072354;28;20474;-61
2023/02/15 07:09:51;;;;;;;30.75;17.77;;;;;2.30;99765.00;;;;5070740;28;20048;-61
2023/02/15 07:15:05;;;;;;;24.88;14.82;;;;;2.30;99759.00;;;;5071626;28;20090;-63
2023/02/15 07:17:32;;;;;;;25.52;14.63;;;;;2.30;99764.00;;;;5072480;28;20086;-62
2023/02/15 07:20:07;;;;;;;26.58;15.35;;;;;2.30;99750.00;;;;5072097;28;20048;-62
2023/02/15 07:22:36;;;;;;;24.10;13.77;;;;;2.20;99754.00;;;;5072134;28;20076;-62
2023/02/15 07:25:08;;;;;;;24.15;14.20;;;;;2.30;99753.00;;;;5071319;28;20535;-62
2023/02/15 07:27:35;;;;;;;24.45;15.40;;;;;2.30;99762.00;;;;5070961;28;20041;-62
2023/02/15 07:30:03;;;;;;;25.05;15.45;;;;;2.30;99761.00;;;;5072248;28;20115;-62
2023/02/15 07:32:31;;;;;;;23.52;14.75;;;;;2.40;99754.00;;;;5054134;28;20501;-63
2023/02/15 07:34:58;;;;;;;28.27;16.05;;;;;2.40;99753.00;;;;5071523;28;20051;-62
2023/02/15 07:37:25;;;;;;;25.92;15.25;;;;;2.30;99752.00;;;;5070718;28;20048;-62
2023/02/15 07:39:52;;;;;;;24.88;15.70;;;;;2.20;99744.00;;;;5072164;28;20175;-62
2023/02/15 07:42:20;;;;;;;27.55;16.23;;;;;2.20;99748.00;;;;5072024;28;20043;-62
2023/02/15 07:44:47;;;;;;;22.95;14.40;;;;;2.20;99747.00;;;;5071527;28;20056;-62
2023/02/15 07:47:14;;;;;;;19.92;12.48;;;;;2.30;99750.00;;;;5072147;28;20044;-60
2023/02/15 07:49:40;;;;;;;21.85;13.65;;;;;2.30;99743.00;;;;5071916;28;20040;-61
2023/02/15 07:52:07;;;;;;;24.48;14.77;;;;;2.30;99742.00;;;;5071917;28;20094;-61
2023/02/15 07:54:33;;;;;;;22.67;15.00;;;;;2.40;99750.00;;;;5071372;28;20059;-61
2023/02/15 07:57:01;;;;;;;21.83;13.27;;;;;2.50;99743.00;;;;5071678;28;20123;-60
2023/02/15 07:59:27;;;;;;;23.70;14.25;;;;;2.50;99734.00;;;;5071798;28;20123;-61
2023/02/15 08:01:56;;;;;;;25.88;16.73;;;;;2.60;99746.00;;;;5070763;28;20052;-61
2023/02/15 08:04:23;;;;;;;25.58;17.30;;;;;2.70;99732.00;;;;5074081;28;20375;-61
2023/02/15 08:06:53;;;;;;;25.30;17.60;;;;;2.80;99737.00;;;;5075754;28;20047;-62
2023/02/15 08:09:20;;;;;;;19.88;13.48;;;;;2.80;99728.00;;;;5075748;28;20051;-60
2023/02/15 08:11:47;;;;;;;20.38;13.10;;;;;2.60;99723.00;;;;5075523;28;20037;-61
2023/02/15 08:14:20;;;;;;;20.52;13.65;;;;;2.50;99711.00;;;;5073400;28;20478;-59
2023/02/15 08:16:55;;;;;;;20.60;12.75;;;;;2.50;99713.00;;;;5076027;28;20048;-62
2023/02/15 08:19:26;;;;;;;19.58;12.82;;;;;2.50;99715.00;;;;5074326;28;20056;-60
2023/02/15 08:21:57;;;;;;;19.10;11.95;;;;;2.50;99711.00;;;;5075361;28;20040;-60
2023/02/15 08:24:29;;;;;;;19.98;12.45;;;;;2.40;99714.00;;;;5075075;28;20119;-61
2023/02/15 08:26:56;;;;;;;22.05;12.88;;;;;2.20;99700.00;;;;5075122;28;20055;-62
2023/02/15 08:29:26;;;;;;;19.65;12.40;;;;;2.30;99712.00;;;;5073768;28;20049;-62
2023/02/15 08:32:02;;;;;;;21.58;13.05;;;;;2.40;99710.00;;;;5073806;28;20053;-62
2023/02/15 08:34:31;;;;;;;20.17;12.82;;;;;2.70;99710.00;;;;5073258;28;20134;-62
2023/02/15 08:36:58;;;;;;;22.45;13.95;;;;;2.60;99708.00;;;;5075010;28;20493;-62
2023/02/15 08:39:25;;;;;;;22.10;13.40;;;;;2.50;99706.00;;;;5074731;28;20515;-61
2023/02/15 08:41:51;;;;;;;24.10;13.95;;;;;2.60;99703.00;;;;5075212;28;20048;-62
2023/02/15 08:44:19;;;;;;;23.98;14.88;;;;;2.80;99694.00;;;;5074394;28;20478;-61
2023/02/15 08:46:48;;;;;;;23.70;14.32;;;;;3.10;99700.00;;;;5074870;28;20047;-61
2023/02/15 08:49:21;;;;;;;22.80;13.90;;;;;3.00;99693.00;;;;5073827;28;20051;-61
2023/02/15 08:51:49;;;;;;;21.92;13.90;;;;;3.10;99694.00;;;;5075048;28;20097;-60
2023/02/15 08:54:18;;;;;;;19.73;13.05;;;;;3.30;99703.00;;;;5074030;28;20045;-61
2023/02/15 08:56:45;;;;;;;21.95;14.23;;;;;3.20;99692.00;;;;5074989;28;20055;-61
2023/02/15 08:59:15;;;;;;;20.65;13.95;;;;;3.10;99696.00;;;;5077583;28;20044;-61
2023/02/15 09:01:42;;;;;;;20.63;13.88;;;;;3.10;99693.00;;;;5081177;28;20041;-60
2023/02/15 09:04:09;;;;;;;24.10;15.05;;;;;3.00;99692.00;;;;5077679;28;20048;-61
2023/02/15 09:06:40;;;;;;;23.85;14.00;;;;;3.00;99689.00;;;;5074600;28;20044;-61
2023/02/15 09:09:08;;;;;;;23.35;14.10;;;;;3.00;99685.00;;;;5073448;28;20048;-60
2023/02/15 09:11:37;;;;;;;22.95;14.88;;;;;3.00;99687.00;;;;5074561;28;20500;-60
2023/02/15 09:14:13;;;;;;;21.05;13.70;;;;;3.10;99696.00;;;;5073996;28;20413;-63
2023/02/15 09:16:41;;;;;;;20.60;13.18;;;;;3.20;99712.00;;;;5073130;28;20052;-60
2023/02/15 09:19:07;;;;;;;22.45;14.40;;;;;3.20;99700.00;;;;5074154;28;20102;-61
2023/02/15 09:21:36;;;;;;;22.13;13.75;;;;;3.20;99702.00;;;;5072920;28;20041;-61
2023/02/15 09:24:06;;;;;;;20.38;13.13;;;;;3.30;99704.00;;;;5072807;28;20094;-61
2023/02/15 09:26:35;;;;;;;25.98;16.90;;;;;3.30;99704.00;;;;5074049;28;20110;-61
2023/02/15 09:29:03;;;;;;;18.90;13.13;;;;;3.60;99706.00;;;;5074380;28;20520;-62
2023/02/15 09:31:53;;;;;;;19.92;13.27;;;;;3.70;99706.00;;;;5072683;28;20053;-62
2023/02/15 09:34:21;;;;;;;20.08;13.07;;;;;3.80;99703.00;;;;5073324;28;20124;-62
2023/02/15 09:36:48;;;;;;;21.33;14.40;;;;;3.70;99702.00;;;;5073885;28;20064;-61
2023/02/15 09:39:16;;;;;;;19.58;13.63;;;;;3.70;99720.00;;;;5073713;28;20044;-61
2023/02/15 09:41:49;;;;;;;20.35;13.50;;;;;3.60;99709.00;;;;5073862;28;20094;-61
2023/02/15 09:44:34;;;;;;;106.55;57.92;;;;;3.60;99703.00;;;;5071975;28;20052;-60
2023/02/15 09:47:12;;;;;;;21.88;15.48;;;;;3.80;99714.00;;;;5073695;28;20040;-61
2023/02/15 09:50:05;;;;;;;17.77;12.63;;;;;4.30;99716.00;;;;5073623;28;20040;-59
2023/02/15 09:52:47;;;;;;;21.60;14.65;;;;;4.40;99711.00;;;;5072463;28;20044;-61
2023/02/15 09:55:23;;;;;;;121.90;59.50;;;;;4.40;99716.00;;;;5073274;28;20040;-61
2023/02/15 09:57:52;;;;;;;38.40;23.00;;;;;4.40;99704.00;;;;5073328;28;20044;-61
2023/02/15 10:00:38;;;;;;;24.67;16.17;;;;;4.50;99709.00;;;;5073119;28;20047;-61
2023/02/15 10:03:14;;;;;;;28.23;17.40;;;;;4.50;99712.00;;;;5071924;28;20048;-61
2023/02/15 10:06:05;;;;;;;21.48;14.05;;;;;4.60;99715.00;;;;5072785;28;20385;-61
2023/02/15 10:08:42;;;;;;;21.23;14.10;;;;;4.70;99704.00;;;;5073034;28;20049;-61
2023/02/15 10:14:17;;;;;;;26.30;13.73;;;;;4.60;99708.00;;;;5072774;28;20044;-61
2023/02/15 10:17:02;;;;;;;20.75;14.73;;;;;4.90;99713.00;;;;5072996;28;20040;-61
2023/02/15 10:19:51;;;;;;;21.35;14.10;;;;;5.10;99709.00;;;;5072741;28;20106;-60
2023/02/15 10:22:38;;;;;;;20.77;13.13;;;;;5.10;99700.00;;;;5072934;28;20086;-61
2023/02/15 10:25:52;;;;;;;20.90;14.00;;;;;5.00;99703.00;;;;5071688;28;20044;-61
2023/02/15 10:28:39;;;;;;;25.83;14.40;;;;;5.00;99702.00;;;;5069060;28;20060;-61
2023/02/15 10:31:34;;;;;;;21.77;13.88;;;;;5.10;99694.00;;;;5071792;28;20055;-62
2023/02/15 10:34:10;;;;;;;20.55;14.05;;;;;5.10;99692.00;;;;5072510;28;20055;-61
2023/02/15 10:36:48;;;;;;;22.27;14.80;;;;;5.20;99685.00;;;;5072226;28;20119;-61
2023/02/15 10:39:29;;;;;;;21.02;14.55;;;;;5.40;99687.00;;;;5072492;28;20049;-61
2023/02/15 10:42:24;;;;;;;18.27;13.38;;;;;5.60;99689.00;;;;5071251;28;20040;-61
2023/02/15 10:45:07;;;;;;;21.60;14.05;;;;;5.80;99689.00;;;;5071818;28;20408;-60
2023/02/15 10:47:58;;;;;;;20.67;14.27;;;;;5.80;99685.00;;;;5072436;28;20394;-61
2023/02/15 10:50:39;;;;;;;21.83;14.40;;;;;5.90;99692.00;;;;5072260;28;20044;-59
2023/02/15 10:53:23;;;;;;;20.52;13.95;;;;;6.10;99681.00;;;;5072389;28;20048;-61
2023/02/15 10:56:09;;;;;;;22.27;14.93;;;;;6.30;99692.00;;;;5071738;28;20053;-62
2023/02/15 10:58:51;;;;;;;21.13;14.40;;;;;6.40;99677.00;;;;5072428;28;20413;-61
2023/02/15 11:01:24;;;;;;;23.50;14.43;;;;;6.40;99674.00;;;;5072160;28;20044;-61
2023/02/15 11:04:13;;;;;;;20.90;14.07;;;;;6.50;99672.00;;;;5072673;28;20417;-61
2023/02/15 11:06:56;;;;;;;20.75;14.10;;;;;6.60;99674.00;;;;5072066;28;20481;-62
2023/02/15 11:09:28;;;;;;;21.02;14.45;;;;;6.70;99672.00;;;;5072030;28;20051;-61
2023/02/15 11:11:59;;;;;;;20.17;13.77;;;;;6.80;99671.00;;;;5072204;28;20032;-61
2023/02/15 11:14:42;;;;;;;21.70;14.35;;;;;6.90;99667.00;;;;5071812;28;20056;-61
2023/02/15 11:17:12;;;;;;;20.90;14.60;;;;;6.90;99663.00;;;;5070930;28;20041;-62
2023/02/15 11:19:46;;;;;;;19.35;13.02;;;;;7.00;99666.00;;;;5071948;28;20097;-62
2023/02/15 11:22:13;;;;;;;21.08;14.55;;;;;7.10;99660.00;;;;5070695;28;20052;-61
2023/02/15 11:24:46;;;;;;;19.70;14.10;;;;;7.20;99653.00;;;;5071355;28;20409;-62
2023/02/15 11:27:14;;;;;;;21.95;14.38;;;;;7.20;99665.00;;;;5071965;28;20044;-62
2023/02/15 11:29:45;;;;;;;23.35;14.55;;;;;7.30;99649.00;;;;5071902;28;20041;-61
2023/02/15 11:32:20;;;;;;;22.92;14.85;;;;;7.40;99650.00;;;;5072037;28;20482;-62
2023/02/15 11:34:53;;;;;;;20.42;13.75;;;;;7.40;99643.00;;;;5070284;28;20045;-62
2023/02/15 11:37:26;;;;;;;21.42;14.07;;;;;7.50;99635.00;;;;5072414;28;20041;-62
2023/02/15 11:39:54;;;;;;;19.67;14.07;;;;;7.60;99639.00;;;;5076138;28;20048;-62
2023/02/15 11:42:23;;;;;;;19.35;13.82;;;;;7.70;99636.00;;;;5075867;28;20110;-62
2023/02/15 11:45:10;;;;;;;22.55;14.40;;;;;7.80;99636.00;;;;5074046;28;20422;-62
2023/02/15 11:47:36;;;;;;;26.40;15.98;;;;;7.90;99620.00;;;;5075813;28;20158;-62
2023/02/15 11:50:03;;;;;;;23.15;14.88;;;;;8.10;99629.00;;;;5075886;28;20098;-61
2023/02/15 11:52:30;;;;;;;20.73;14.38;;;;;8.20;99626.00;;;;5075660;28;20056;-62
2023/02/15 11:54:56;;;;;;;21.80;14.98;;;;;8.20;99620.00;;;;5075183;28;20463;-62
2023/02/15 11:57:35;;;;;;;21.88;14.38;;;;;8.30;99620.00;;;;5075414;28;20105;-62
2023/02/15 12:00:20;;;;;;;22.40;14.75;;;;;8.40;99624.00;;;;5075750;28;20246;-61
2023/02/15 12:02:53;;;;;;;20.40;14.30;;;;;8.40;99614.00;;;;5075528;28;20489;-62
2023/02/15 12:05:23;;;;;;;20.13;13.80;;;;;8.50;99609.00;;;;5074828;28;20044;-62
2023/02/15 12:08:14;;;;;;;18.45;13.00;;;;;8.60;99611.00;;;;5075580;28;20408;-62
2023/02/15 12:10:52;;;;;;;22.02;14.32;;;;;8.60;99616.00;;;;5069227;28;20102;-62
2023/02/15 12:13:20;;;;;;;20.17;14.45;;;;;8.70;99614.00;;;;5075294;28;20094;-62
2023/02/15 12:15:49;;;;;;;20.67;14.27;;;;;8.80;99614.00;;;;5074976;28;20083;-63
2023/02/15 12:18:31;;;;;;;19.13;13.98;;;;;8.90;99604.00;;;;5075190;28;20062;-62
2023/02/15 12:21:00;;;;;;;20.25;14.98;;;;;8.90;99603.00;;;;5075241;28;20551;-61
2023/02/15 12:23:28;;;;;;;18.05;13.18;;;;;9.00;99607.00;;;;5075052;28;20045;-62
2023/02/15 12:25:56;;;;;;;18.88;13.73;;;;;8.90;99592.00;;;;5074513;28;20106;-63
2023/02/15 12:28:32;;;;;;;20.30;14.60;;;;;9.00;99597.00;;;;5074951;28;20036;-62
2023/02/15 12:31:01;;;;;;;20.45;13.85;;;;;9.00;99590.00;;;;5075094;28;20048;-62
2023/02/15 12:33:30;;;;;;;20.33;13.95;;;;;9.10;99585.00;;;;5074774;28;20045;-62
2023/02/15 12:36:01;;;;;;;19.90;13.50;;;;;9.20;99590.00;;;;5074452;28;20041;-62
2023/02/15 12:38:29;;;;;;;23.25;14.95;;;;;9.20;99580.00;;;;5075107;28;20259;-61
2023/02/15 12:41:03;;;;;;;17.77;13.68;;;;;9.30;99580.00;;;;5074920;28;20033;-62
2023/02/15 12:43:37;;;;;;;20.40;15.48;;;;;9.30;99574.00;;;;5074835;28;20079;-61
2023/02/15 12:46:19;;;;;;;19.88;13.68;;;;;9.40;99568.00;;;;5073242;28;20045;-62
2023/02/15 12:48:46;;;;;;;18.33;14.20;;;;;9.40;99569.00;;;;5074101;28;20041;-62
2023/02/15 12:51:15;;;;;;;21.98;14.82;;;;;9.50;99565.00;;;;5073261;28;20090;-62
2023/02/15 12:53:42;;;;;;;21.88;14.07;;;;;9.50;99557.00;;;;5074206;28;20098;-61
2023/02/15 12:56:11;;;;;;;20.10;14.73;;;;;9.60;99568.00;;;;5074127;28;20417;-60
2023/02/15 12:58:41;;;;;;;19.77;12.43;;;;;9.60;99550.00;;;;5074620;28;20041;-61
2023/02/15 13:01:14;;;;;;;18.63;14.52;;;;;9.60;99548.00;;;;5083019;28;20033;-61
2023/02/15 13:03:58;;;;;;;19.55;14.02;;;;;9.70;99542.00;;;;5077277;28;20104;-61